createdAt,value
2022-08-28T00:00:14.312Z,66.72
2022-08-28T00:02:42.356Z,67.07
2022-08-28T00:05:11.698Z,67.13
2022-08-28T00:07:40.838Z,67.28
2022-08-28T00:10:15.650Z,67.36
2022-08-28T00:12:44.743Z,67.33
2022-08-28T00:15:16.916Z,67.20
2022-08-28T00:17:45.160Z,67.29
2022-08-28T00:20:14.308Z,67.57
2022-08-28T00:22:42.238Z,67.53
2022-08-28T00:25:12.623Z,67.63
2022-08-28T00:27:55.590Z,67.64
2022-08-28T00:30:29.956Z,67.55
2022-08-28T00:33:02.983Z,67.67
2022-08-28T00:35:30.839Z,67.82
2022-08-28T00:37:58.464Z,68.08
2022-08-28T00:40:32.439Z,68.16
2022-08-28T00:43:03.580Z,68.18
2022-08-28T00:45:38.815Z,68.25
2022-08-28T00:48:08.448Z,68.45
2022-08-28T00:51:00.648Z,68.35
2022-08-28T00:53:32.980Z,68.52
2022-08-28T00:56:06.938Z,68.60
2022-08-28T00:58:43.354Z,68.69
2022-08-28T01:01:12.781Z,68.66
2022-08-28T01:03:41.528Z,68.82
2022-08-28T01:06:09.639Z,68.83
2022-08-28T01:08:40.807Z,68.92
2022-08-28T01:11:10.013Z,68.91
2022-08-28T01:13:41.435Z,69.02
2022-08-28T01:16:10.051Z,68.85
2022-08-28T01:18:37.806Z,68.79
2022-08-28T01:21:28.035Z,68.60
2022-08-28T01:24:00.395Z,68.75
2022-08-28T01:26:29.909Z,68.97
2022-08-28T01:28:59.965Z,68.95
2022-08-28T01:31:31.385Z,68.92
2022-08-28T01:33:59.392Z,68.85
2022-08-28T01:36:29.305Z,68.89
2022-08-28T01:39:03.008Z,69.09
2022-08-28T01:41:30.935Z,68.67
2022-08-28T01:43:59.295Z,69.15
2022-08-28T01:46:27.658Z,69.19
2022-08-28T01:48:55.323Z,69.21
2022-08-28T01:51:24.721Z,69.19
2022-08-28T01:53:52.720Z,69.16
2022-08-28T01:56:20.652Z,69.26
2022-08-28T01:58:48.391Z,69.34
2022-08-28T02:01:19.426Z,69.43
2022-08-28T02:03:47.611Z,69.29
2022-08-28T02:06:16.953Z,69.61
2022-08-28T02:08:44.905Z,69.62
2022-08-28T02:11:13.442Z,69.57
2022-08-28T02:13:41.185Z,69.38
2022-08-28T02:16:10.916Z,69.37
2022-08-28T02:18:39.027Z,69.66
2022-08-28T02:21:07.942Z,69.64
2022-08-28T02:23:37.023Z,69.74
2022-08-28T02:26:04.547Z,70.01
2022-08-28T02:28:32.183Z,69.73
2022-08-28T02:30:59.865Z,69.81
2022-08-28T02:33:27.576Z,70.08
2022-08-28T02:35:55.347Z,70.06
2022-08-28T02:38:23.211Z,70.14
2022-08-28T02:40:51.064Z,70.15
2022-08-28T02:43:18.615Z,69.95
2022-08-28T02:45:46.260Z,70.03
2022-08-28T02:48:17.108Z,70.22
2022-08-28T02:50:46.818Z,70.18
2022-08-28T02:53:14.477Z,70.16
2022-08-28T02:55:42.037Z,70.05
2022-08-28T02:58:09.932Z,69.86
2022-08-28T03:00:37.528Z,69.89
2022-08-28T03:03:05.422Z,70.02
2022-08-28T03:05:33.033Z,70.19
2022-08-28T03:08:00.990Z,69.99
2022-08-28T03:10:28.561Z,70.39
2022-08-28T03:12:56.132Z,70.12
2022-08-28T03:15:23.745Z,70.03
2022-08-28T03:17:51.283Z,70.21
2022-08-28T03:20:19.226Z,70.58
2022-08-28T03:23:05.243Z,70.51
2022-08-28T03:25:32.876Z,70.19
2022-08-28T03:28:00.439Z,70.35
2022-08-28T03:30:28.099Z,70.26
2022-08-28T03:32:55.704Z,70.36
2022-08-28T03:35:23.496Z,70.58
2022-08-28T03:37:51.035Z,70.48
2022-08-28T03:40:19.959Z,70.76
2022-08-28T03:42:53.442Z,70.80
2022-08-28T03:45:21.857Z,70.77
2022-08-28T03:47:50.817Z,71.19
2022-08-28T03:50:18.616Z,70.89
2022-08-28T03:52:47.880Z,70.88
2022-08-28T03:55:16.801Z,71.19
2022-08-28T03:57:44.358Z,71.14
2022-08-28T04:00:14.326Z,71.22
2022-08-28T04:02:43.777Z,71.46
2022-08-28T04:05:11.994Z,71.46
2022-08-28T04:07:40.180Z,71.56
2022-08-28T04:10:08.635Z,71.70
2022-08-28T04:12:37.122Z,71.42
2022-08-28T04:15:06.996Z,71.52
2022-08-28T04:17:37.140Z,71.45
2022-08-28T04:20:06.542Z,71.65
2022-08-28T04:22:35.004Z,72.01
2022-08-28T04:25:03.469Z,71.93
2022-08-28T04:27:31.028Z,71.96
2022-08-28T04:29:59.266Z,72.15
2022-08-28T04:32:26.808Z,72.25
2022-08-28T04:34:54.675Z,72.16
2022-08-28T04:37:22.936Z,72.68
2022-08-28T04:39:55.531Z,72.60
2022-08-28T04:42:23.230Z,72.50
2022-08-28T04:44:50.944Z,72.39
2022-08-28T04:47:18.536Z,72.86
2022-08-28T04:49:46.138Z,72.97
2022-08-28T04:52:13.658Z,72.93
2022-08-28T04:54:41.768Z,72.81
2022-08-28T04:57:09.325Z,72.96
2022-08-28T04:59:37.106Z,73.00
2022-08-28T05:02:05.748Z,73.20
2022-08-28T05:04:33.406Z,73.13
2022-08-28T05:07:01.255Z,73.57
2022-08-28T05:09:28.952Z,73.59
2022-08-28T05:11:56.565Z,73.86
2022-08-28T05:14:24.089Z,73.73
2022-08-28T05:16:57.829Z,73.48
2022-08-28T05:19:27.832Z,73.84
2022-08-28T05:21:55.487Z,73.87
2022-08-28T05:24:23.188Z,73.69
2022-08-28T05:26:51.053Z,74.08
2022-08-28T05:29:18.553Z,73.91
2022-08-28T05:31:46.515Z,74.12
2022-08-28T05:34:15.289Z,74.09
2022-08-28T05:36:43.204Z,74.35
2022-08-28T05:39:11.987Z,74.26
2022-08-28T05:41:42.303Z,74.25
2022-08-28T05:44:12.418Z,74.45
2022-08-28T05:46:42.363Z,74.65
2022-08-28T05:49:10.566Z,74.38
2022-08-28T05:51:41.193Z,74.44
2022-08-28T05:54:09.659Z,74.13
2022-08-28T05:56:40.808Z,74.41
2022-08-28T05:59:09.792Z,74.29
2022-08-28T06:01:44.103Z,74.35
2022-08-28T06:04:18.261Z,74.27
2022-08-28T06:06:46.313Z,74.28
2022-08-28T06:09:19.255Z,74.05
2022-08-28T06:11:47.545Z,74.06
2022-08-28T06:14:18.054Z,73.96
2022-08-28T06:16:53.023Z,74.18
2022-08-28T06:19:23.125Z,73.95
2022-08-28T06:21:55.263Z,73.88
2022-08-28T06:24:23.482Z,73.75
2022-08-28T06:26:52.625Z,73.59
2022-08-28T06:29:22.369Z,73.36
2022-08-28T06:31:58.852Z,72.82
2022-08-28T06:34:27.794Z,72.66
2022-08-28T06:36:55.996Z,72.67
2022-08-28T06:39:23.998Z,72.34
2022-08-28T06:41:51.605Z,72.06
2022-08-28T06:44:20.983Z,71.77
2022-08-28T06:46:50.818Z,71.38
2022-08-28T06:49:18.763Z,71.14
2022-08-28T06:51:46.508Z,70.76
2022-08-28T06:54:21.158Z,70.68
2022-08-28T06:56:49.837Z,70.66
2022-08-28T06:59:17.590Z,70.47
2022-08-28T07:01:45.369Z,70.32
2022-08-28T07:04:14.749Z,69.56
2022-08-28T07:06:53.654Z,69.23
2022-08-28T07:09:22.661Z,68.88
2022-08-28T07:11:51.170Z,68.53
2022-08-28T07:14:18.717Z,68.05
2022-08-28T07:16:46.254Z,67.79
2022-08-28T07:19:16.232Z,67.41
2022-08-28T07:21:45.704Z,67.48
2022-08-28T07:24:15.112Z,67.24
2022-08-28T07:26:44.642Z,67.14
2022-08-28T07:29:13.054Z,67.03
2022-08-28T07:31:43.288Z,66.94
2022-08-28T07:34:13.684Z,66.54
2022-08-28T07:36:42.159Z,66.26
2022-08-28T07:39:11.459Z,66.17
2022-08-28T07:41:42.694Z,65.79
2022-08-28T07:44:48.065Z,65.70
2022-08-28T07:47:18.191Z,65.29
2022-08-28T07:49:45.903Z,65.30
2022-08-28T07:52:13.502Z,65.66
2022-08-28T07:54:41.032Z,64.87
2022-08-28T07:57:10.362Z,65.24
2022-08-28T07:59:38.065Z,65.21
2022-08-28T08:02:07.707Z,65.17
2022-08-28T08:04:35.460Z,64.93
2022-08-28T08:07:04.667Z,64.26
2022-08-28T08:09:37.757Z,64.35
2022-08-28T08:12:07.081Z,64.13
2022-08-28T08:14:34.847Z,64.03
2022-08-28T08:17:03.802Z,63.86
2022-08-28T08:19:35.343Z,63.58
2022-08-28T08:22:03.383Z,63.35
2022-08-28T08:24:31.058Z,62.83
2022-08-28T08:27:02.110Z,62.88
2022-08-28T08:29:33.074Z,62.65
2022-08-28T08:32:06.165Z,62.31
2022-08-28T08:34:38.705Z,62.63
2022-08-28T08:37:07.146Z,62.33
2022-08-28T08:39:36.430Z,61.74
2022-08-28T08:42:07.276Z,61.54
2022-08-28T08:44:40.976Z,61.16
2022-08-28T08:47:23.628Z,61.00
2022-08-28T08:50:03.757Z,60.72
2022-08-28T08:52:48.861Z,60.58
2022-08-28T08:55:19.302Z,60.27
2022-08-28T08:57:51.468Z,59.61
2022-08-28T09:00:20.087Z,58.92
2022-08-28T09:03:06.361Z,57.98
2022-08-28T09:05:40.449Z,57.38
2022-08-28T09:08:16.122Z,56.26
2022-08-28T09:10:51.892Z,55.50
2022-08-28T09:13:42.105Z,54.19
2022-08-28T09:16:24.190Z,53.24
2022-08-28T09:18:53.737Z,53.25
2022-08-28T09:21:29.436Z,52.35
2022-08-28T09:24:05.751Z,52.48
2022-08-28T09:26:35.176Z,51.71
2022-08-28T09:29:14.148Z,50.59
2022-08-28T09:31:41.972Z,50.25
2022-08-28T09:34:21.226Z,49.06
2022-08-28T09:36:48.894Z,48.40
2022-08-28T09:39:32.084Z,47.06
2022-08-28T09:42:36.794Z,46.03
2022-08-28T09:45:47.784Z,44.67
2022-08-28T09:48:35.748Z,43.82
2022-08-28T09:51:25.116Z,43.55
2022-08-28T09:53:52.601Z,41.71
2022-08-28T09:56:33.648Z,40.34
2022-08-28T09:59:05.708Z,40.05
2022-08-28T10:01:45.073Z,39.17
2022-08-28T10:04:15.935Z,38.95
2022-08-28T10:06:48.960Z,38.38
2022-08-28T10:09:39.471Z,37.08
2022-08-28T10:12:32.665Z,36.08
2022-08-28T10:15:07.424Z,35.49
2022-08-28T10:17:40.762Z,34.84
2022-08-28T10:20:25.106Z,34.28
2022-08-28T10:23:15.667Z,33.68
2022-08-28T10:25:56.943Z,32.93
2022-08-28T10:28:27.357Z,31.36
2022-08-28T10:31:00.742Z,30.65
2022-08-28T10:33:36.506Z,31.14
2022-08-28T10:36:32.923Z,31.57
2022-08-28T10:39:08.387Z,31.30
2022-08-28T10:41:46.768Z,31.03
2022-08-28T10:44:21.535Z,30.32
2022-08-28T10:46:56.131Z,30.50
2022-08-28T10:49:34.375Z,30.74
2022-08-28T10:52:31.711Z,30.47
2022-08-28T10:55:16.486Z,30.63
2022-08-28T10:58:23.999Z,30.90
2022-08-28T11:01:04.095Z,30.81
2022-08-28T11:04:06.792Z,30.58
2022-08-28T11:06:43.277Z,30.81
2022-08-28T11:09:25.899Z,30.56
2022-08-28T11:12:02.604Z,30.81
2022-08-28T11:14:47.887Z,31.93
2022-08-28T11:17:22.776Z,33.11
2022-08-28T11:20:22.839Z,34.02
2022-08-28T11:22:58.817Z,34.25
2022-08-28T11:25:49.759Z,34.52
2022-08-28T11:28:19.238Z,33.35
2022-08-28T11:30:49.441Z,33.58
2022-08-28T11:33:55.600Z,33.41
2022-08-28T11:36:23.580Z,34.29
2022-08-28T11:38:51.052Z,35.05
2022-08-28T11:41:34.251Z,35.41
2022-08-28T11:44:13.591Z,35.28
2022-08-28T11:46:43.469Z,35.78
2022-08-28T11:49:26.586Z,35.82
2022-08-28T11:52:09.291Z,35.96
2022-08-28T11:54:55.577Z,35.57
2022-08-28T11:57:28.851Z,35.49
2022-08-28T12:00:09.222Z,35.68
2022-08-28T12:02:40.036Z,35.46
2022-08-28T12:05:16.765Z,35.07
2022-08-28T12:07:49.992Z,35.13
2022-08-28T12:10:20.335Z,34.93
2022-08-28T12:12:47.956Z,34.13
2022-08-28T12:15:28.192Z,34.07
2022-08-28T12:17:59.189Z,34.10
2022-08-28T12:20:48.148Z,32.76
2022-08-28T12:23:34.972Z,33.07
2022-08-28T12:26:26.744Z,33.45
2022-08-28T12:29:03.714Z,32.62
2022-08-28T12:32:04.512Z,33.37
2022-08-28T12:34:43.717Z,33.90
2022-08-28T12:37:39.558Z,33.72
2022-08-28T12:40:25.825Z,34.33
2022-08-28T12:43:02.570Z,34.73
2022-08-28T12:45:36.484Z,36.01
2022-08-28T12:48:27.182Z,36.07
2022-08-28T12:51:03.148Z,35.48
2022-08-28T12:53:40.294Z,36.11
2022-08-28T12:56:13.160Z,36.20
2022-08-28T12:58:42.008Z,36.83
2022-08-28T13:01:16.440Z,36.51
2022-08-28T13:04:25.293Z,37.17
2022-08-28T13:07:01.920Z,37.61
2022-08-28T13:09:29.746Z,37.83
2022-08-28T13:11:57.534Z,37.79
2022-08-28T13:14:44.779Z,37.94
2022-08-28T13:17:14.607Z,38.41
2022-08-28T13:19:42.617Z,39.00
2022-08-28T13:22:40.028Z,38.62
2022-08-28T13:25:09.086Z,38.71
2022-08-28T13:27:37.019Z,38.77
2022-08-28T13:30:24.012Z,38.85
2022-08-28T13:32:58.174Z,38.34
2022-08-28T13:35:25.790Z,38.12
2022-08-28T13:38:02.352Z,38.03
2022-08-28T13:43:23.153Z,37.36
2022-08-28T13:45:51.771Z,36.51
2022-08-28T13:48:22.643Z,36.40
2022-08-28T13:50:54.646Z,36.57
2022-08-28T13:53:23.239Z,36.22
2022-08-28T13:55:50.890Z,36.38
2022-08-28T13:58:19.205Z,36.38
2022-08-28T14:00:50.757Z,36.62
2022-08-28T14:03:38.003Z,36.01
2022-08-28T14:06:18.552Z,36.55
2022-08-28T14:08:47.062Z,36.04
2022-08-28T14:11:15.800Z,36.10
2022-08-28T14:13:46.903Z,36.42
2022-08-28T14:16:24.421Z,36.25
2022-08-28T14:18:53.095Z,36.33
2022-08-28T14:21:22.301Z,36.59
2022-08-28T14:23:50.485Z,36.14
2022-08-28T14:26:18.738Z,36.25
2022-08-28T14:28:46.354Z,35.71
2022-08-28T14:31:14.923Z,35.41
2022-08-28T14:33:45.365Z,35.87
2022-08-28T14:36:21.051Z,35.60
2022-08-28T14:38:53.724Z,36.18
2022-08-28T14:41:25.846Z,36.36
2022-08-28T14:43:54.859Z,36.92
2022-08-28T14:46:28.985Z,37.85
2022-08-28T14:49:09.108Z,38.47
2022-08-28T14:51:39.200Z,38.28
2022-08-28T14:54:08.023Z,39.17
2022-08-28T14:56:35.982Z,38.80
2022-08-28T14:59:06.126Z,39.07
2022-08-28T15:01:40.259Z,39.59
2022-08-28T15:04:15.778Z,39.28
2022-08-28T15:06:44.113Z,39.12
2022-08-28T15:09:13.476Z,38.78
2022-08-28T15:11:42.300Z,39.27
2022-08-28T15:14:10.919Z,39.25
2022-08-28T15:16:42.661Z,39.62
2022-08-28T15:19:12.584Z,39.79
2022-08-28T15:21:51.762Z,40.28
2022-08-28T15:24:23.788Z,40.24
2022-08-28T15:26:51.869Z,40.46
2022-08-28T15:29:19.796Z,40.27
2022-08-28T15:31:49.305Z,40.53
2022-08-28T15:34:23.194Z,40.48
2022-08-28T15:36:54.858Z,40.96
2022-08-28T15:39:43.595Z,41.14
2022-08-28T15:42:11.589Z,41.15
2022-08-28T15:44:39.200Z,41.54
2022-08-28T15:47:07.668Z,41.74
2022-08-28T15:49:43.446Z,42.10
2022-08-28T15:52:16.277Z,42.19
2022-08-28T15:54:43.824Z,41.94
2022-08-28T15:57:11.419Z,42.41
2022-08-28T15:59:48.294Z,43.04
2022-08-28T16:02:24.749Z,43.38
2022-08-28T16:04:53.726Z,43.46
2022-08-28T16:07:22.620Z,43.89
2022-08-28T16:09:51.035Z,43.85
2022-08-28T16:12:19.225Z,43.99
2022-08-28T16:14:47.060Z,43.79
2022-08-28T16:17:14.651Z,44.08
2022-08-28T16:19:42.972Z,44.19
2022-08-28T16:22:11.936Z,44.25
2022-08-28T16:24:39.546Z,44.58
2022-08-28T16:27:10.731Z,44.15
2022-08-28T16:29:42.821Z,43.55
2022-08-28T16:32:11.632Z,43.66
2022-08-28T16:34:40.066Z,43.19
2022-08-28T16:37:08.171Z,43.59
2022-08-28T16:39:36.661Z,43.86
2022-08-28T16:42:04.860Z,43.90
2022-08-28T16:44:32.761Z,44.00
2022-08-28T16:47:00.856Z,43.96
2022-08-28T16:49:28.757Z,44.06
2022-08-28T16:51:56.321Z,44.48
2022-08-28T16:54:24.392Z,44.88
2022-08-28T16:56:51.922Z,45.37
2022-08-28T16:59:23.408Z,45.71
2022-08-28T17:01:53.710Z,45.76
2022-08-28T17:04:22.392Z,45.82
2022-08-28T17:06:50.189Z,45.42
2022-08-28T17:09:20.927Z,45.81
2022-08-28T17:11:51.522Z,45.42
2022-08-28T17:14:21.223Z,45.52
2022-08-28T17:16:49.549Z,45.70
2022-08-28T17:19:17.515Z,45.84
2022-08-28T17:22:03.529Z,46.41
2022-08-28T17:24:31.184Z,46.71
2022-08-28T17:27:03.238Z,46.97
2022-08-28T17:29:38.800Z,47.65
2022-08-28T17:32:08.006Z,48.64
2022-08-28T17:34:36.334Z,48.80
2022-08-28T17:37:04.832Z,48.92
2022-08-28T17:39:32.498Z,49.41
2022-08-28T17:42:00.127Z,49.91
2022-08-28T17:44:27.939Z,50.31
2022-08-28T17:46:55.541Z,50.08
2022-08-28T17:49:23.161Z,50.68
2022-08-28T17:51:51.261Z,51.22
2022-08-28T17:54:21.764Z,51.19
2022-08-28T17:56:50.356Z,51.46
2022-08-28T17:59:20.097Z,52.04
2022-08-28T18:01:48.590Z,51.97
2022-08-28T18:04:23.637Z,52.03
2022-08-28T18:06:54.489Z,51.69
2022-08-28T18:09:24.037Z,52.35
2022-08-28T18:11:53.125Z,52.54
2022-08-28T18:14:21.168Z,52.34
2022-08-28T18:16:49.069Z,52.49
2022-08-28T18:19:16.828Z,52.07
2022-08-28T18:21:44.859Z,52.16
2022-08-28T18:24:13.212Z,51.93
2022-08-28T18:26:42.753Z,52.00
2022-08-28T18:29:11.300Z,51.73
2022-08-28T18:31:39.390Z,51.76
2022-08-28T18:34:07.154Z,51.48
2022-08-28T18:36:36.935Z,51.77
2022-08-28T18:39:04.495Z,51.97
2022-08-28T18:41:37.658Z,52.04
2022-08-28T18:44:14.176Z,52.61
2022-08-28T18:46:43.043Z,53.08
2022-08-28T18:49:11.145Z,53.58
2022-08-28T18:51:40.555Z,53.89
2022-08-28T18:54:08.109Z,53.89
2022-08-28T18:56:36.030Z,54.44
2022-08-28T18:59:05.407Z,54.75
2022-08-28T19:01:33.246Z,55.30
2022-08-28T19:04:00.980Z,55.31
2022-08-28T19:06:28.629Z,55.47
2022-08-28T19:08:56.306Z,55.55
2022-08-28T19:11:24.087Z,56.19
2022-08-28T19:13:51.713Z,56.56
2022-08-28T19:16:20.619Z,57.00
2022-08-28T19:18:52.748Z,56.98
2022-08-28T19:21:20.935Z,57.32
2022-08-28T19:23:55.935Z,57.92
2022-08-28T19:26:27.749Z,58.63
2022-08-28T19:28:56.284Z,58.97
2022-08-28T19:31:25.590Z,59.36
2022-08-28T19:33:54.052Z,59.88
2022-08-28T19:36:21.887Z,60.43
2022-08-28T19:38:49.534Z,60.52
2022-08-28T19:41:17.719Z,60.69
2022-08-28T19:43:45.497Z,60.78
2022-08-28T19:46:19.505Z,61.09
2022-08-28T19:48:50.424Z,61.16
2022-08-28T19:51:23.232Z,61.24
2022-08-28T19:53:58.422Z,61.19
2022-08-28T19:56:27.825Z,61.67
2022-08-28T19:58:58.539Z,61.67
2022-08-28T20:01:33.034Z,61.90
2022-08-28T20:04:01.923Z,61.89
2022-08-28T20:06:33.581Z,62.05
2022-08-28T20:09:26.606Z,62.19
2022-08-28T20:11:55.556Z,62.18
2022-08-28T20:14:23.400Z,62.52
2022-08-28T20:16:52.071Z,62.65
2022-08-28T20:19:20.131Z,62.83
2022-08-28T20:21:50.169Z,63.05
2022-08-28T20:24:22.249Z,62.99
2022-08-28T20:26:51.480Z,63.11
2022-08-28T20:29:24.541Z,63.47
2022-08-28T20:31:53.098Z,63.48
2022-08-28T20:34:21.499Z,63.84
2022-08-28T20:36:49.647Z,64.20
2022-08-28T20:39:18.335Z,64.47
2022-08-28T20:41:47.459Z,64.62
2022-08-28T20:44:17.132Z,64.84
2022-08-28T20:46:51.062Z,64.94
2022-08-28T20:49:23.876Z,65.32
2022-08-28T20:51:58.941Z,65.67
2022-08-28T20:54:33.364Z,65.85
2022-08-28T20:57:04.545Z,66.09
2022-08-28T20:59:40.045Z,66.49
2022-08-28T21:02:15.389Z,66.67
2022-08-28T21:04:45.684Z,66.87
2022-08-28T21:07:15.584Z,66.73
2022-08-28T21:10:06.377Z,66.91
2022-08-28T21:12:31.880Z,66.86
2022-08-28T21:14:59.960Z,67.06
2022-08-28T21:17:30.350Z,67.07
2022-08-28T21:20:00.983Z,67.28
2022-08-28T21:22:30.310Z,67.54
2022-08-28T21:24:58.164Z,67.62
2022-08-28T21:27:26.324Z,67.76
2022-08-28T21:29:59.411Z,67.96
2022-08-28T21:32:28.692Z,68.04
2022-08-28T21:34:57.059Z,68.44
2022-08-28T21:37:24.969Z,68.50
2022-08-28T21:39:53.789Z,69.09
2022-08-28T21:42:21.900Z,68.93
2022-08-28T21:44:52.024Z,69.28
2022-08-28T21:47:23.355Z,69.24
2022-08-28T21:49:57.451Z,69.65
2022-08-28T21:52:30.129Z,69.73
2022-08-28T21:55:05.109Z,70.13
2022-08-28T21:57:33.003Z,70.68
2022-08-28T22:00:00.971Z,70.40
2022-08-28T22:02:29.189Z,70.80
2022-08-28T22:04:57.019Z,70.91
2022-08-28T22:07:25.320Z,71.03
2022-08-28T22:09:53.307Z,71.09
2022-08-28T22:12:21.077Z,71.35
2022-08-28T22:14:48.953Z,71.30
2022-08-28T22:17:16.813Z,71.56
2022-08-28T22:19:46.396Z,71.93
2022-08-28T22:22:34.629Z,72.04
2022-08-28T22:25:02.553Z,72.48
2022-08-28T22:27:32.054Z,72.36
2022-08-28T22:30:00.114Z,72.71
2022-08-28T22:32:28.217Z,72.87
2022-08-28T22:34:56.209Z,72.91
2022-08-28T22:37:24.214Z,73.13
2022-08-28T22:39:52.101Z,73.13
2022-08-28T22:42:20.007Z,73.20
2022-08-28T22:44:47.926Z,73.48
2022-08-28T22:47:16.129Z,73.78
2022-08-28T22:49:47.363Z,74.05
2022-08-28T22:52:15.709Z,73.88
2022-08-28T22:54:43.716Z,74.05
2022-08-28T22:57:11.863Z,74.12
2022-08-28T22:59:39.739Z,74.02
2022-08-28T23:02:08.013Z,74.29
2022-08-28T23:04:35.888Z,74.22
2022-08-28T23:07:04.378Z,74.42
2022-08-28T23:09:33.098Z,75.00
2022-08-28T23:12:07.896Z,74.56
2022-08-28T23:14:36.023Z,74.59
2022-08-28T23:17:03.991Z,74.63
2022-08-28T23:19:32.317Z,74.43
2022-08-28T23:22:00.453Z,74.71
2022-08-28T23:24:28.400Z,74.54
2022-08-28T23:26:56.297Z,74.88
2022-08-28T23:29:24.283Z,75.15
2022-08-28T23:31:52.240Z,75.31
2022-08-28T23:34:20.250Z,75.01
2022-08-28T23:36:48.108Z,74.83
2022-08-28T23:39:16.027Z,75.12
2022-08-28T23:41:43.863Z,74.81
2022-08-28T23:44:11.821Z,75.11
2022-08-28T23:46:41.222Z,75.15
2022-08-28T23:49:11.152Z,75.46
2022-08-28T23:51:40.962Z,75.32
2022-08-28T23:54:10.055Z,75.91
2022-08-28T23:56:38.771Z,75.55
2022-08-28T23:59:07.003Z,75.82
